Time;durP1;ratioP1;P1;durP2;ratioP2;P2;SDS_P1;SDS_P2;PMS_P1;PMS_P2;Temp;Humidity;BMP_temperature;BMP_pressure;BME280_temperature;BME280_humidity;BME280_pressure;Samples;Min_cycle;Max_cycle;Signal;HPM_P1;HPM_P2
2023/09/17 00:00:12;;;;;;;;;;;;;;;18.06;86.84;101346.69;5029583;28;1249;-78
2023/09/17 00:02:37;;;;;;;;;;;;;;;18.04;86.65;101341.63;5029818;28;1182;-78
2023/09/17 00:05:03;;;;;;;;;;;;;;;18.01;86.39;101336.69;5031294;28;1257;-78
2023/09/17 00:07:28;;;;;;;;;;;;;;;17.95;86.89;101329.47;5025162;28;1969;-78
2023/09/17 00:09:54;;;;;;;;;;;;;;;17.96;86.70;101333.72;5028608;28;1071;-78
2023/09/17 00:12:19;;;;;;;;;;;;;;;17.95;86.62;101345.22;5027758;28;1253;-78
2023/09/17 00:14:45;;;;;;;;;;;;;;;17.93;86.41;101341.91;5011120;28;1343;-78
2023/09/17 00:17:11;;;;;;;;;;;;;;;17.91;86.05;101338.63;5024092;28;1305;-78
2023/09/17 00:19:36;;;;;;;;;;;;;;;17.90;86.74;101334.38;5029709;28;1191;-78
2023/09/17 00:22:03;;;;;;;;;;;;;;;17.81;86.34;101332.69;5009224;28;1236;-78
2023/09/17 00:24:28;;;;;;;;;;;;;;;17.76;86.49;101334.97;5025439;28;1232;-77
2023/09/17 00:26:54;;;;;;;;;;;;;;;17.75;86.65;101328.09;5012550;28;2008;-78
2023/09/17 00:29:19;;;;;;;;;;;;;;;17.71;86.79;101326.72;5031231;28;1303;-78
2023/09/17 00:31:44;;;;;;;;;;;;;;;17.70;87.06;101322.47;5039885;28;1272;-78
2023/09/17 00:34:09;;;;;;;;;;;;;;;17.70;86.85;101325.91;5034917;28;1374;-78
2023/09/17 00:36:35;;;;;;;;;;;;;;;17.69;86.96;101323.47;5013256;28;1548;-79
2023/09/17 00:39:00;;;;;;;;;;;;;;;17.66;87.04;101318.50;5034910;28;1299;-78
2023/09/17 00:41:26;;;;;;;;;;;;;;;17.64;87.03;101315.25;5032178;28;1248;-79
2023/09/17 00:43:51;;;;;;;;;;;;;;;17.64;86.78;101326.56;5035135;28;1615;-79
2023/09/17 00:46:16;;;;;;;;;;;;;;;17.64;86.61;101320.50;5000235;28;1218;-79
2023/09/17 00:48:42;;;;;;;;;;;;;;;17.56;85.82;101308.19;5017398;28;1894;-78
2023/09/17 00:51:08;;;;;;;;;;;;;;;17.51;85.80;101303.41;5026397;28;1476;-79
2023/09/17 00:53:34;;;;;;;;;;;;;;;17.49;85.48;101305.38;5035617;28;1284;-78
2023/09/17 00:55:59;;;;;;;;;;;;;;;17.48;85.37;101300.25;5033912;28;1226;-78
2023/09/17 00:58:28;;;;;;;;;;;;;;;17.45;85.38;101290.94;5031159;28;1330;-79
2023/09/17 01:00:55;;;;;;;;;;;;;;;17.43;85.15;101278.94;5017288;28;1358;-78
2023/09/17 01:03:21;;;;;;;;;;;;;;;17.42;83.76;101272.88;5031722;28;1264;-78
2023/09/17 01:05:47;;;;;;;;;;;;;;;17.36;83.96;101276.13;5028279;28;1598;-78
2023/09/17 01:08:12;;;;;;;;;;;;;;;17.34;84.76;101283.34;5030057;28;1890;-79
2023/09/17 01:10:39;;;;;;;;;;;;;;;17.28;82.92;101278.72;5032530;28;1179;-78
2023/09/17 01:13:05;;;;;;;;;;;;;;;17.26;83.51;101275.44;5030478;28;1116;-78
2023/09/17 01:15:30;;;;;;;;;;;;;;;17.21;83.16;101259.38;5025755;28;1472;-78
2023/09/17 01:17:57;;;;;;;;;;;;;;;17.17;82.41;101255.41;5031983;28;1440;-78
2023/09/17 01:20:26;;;;;;;;;;;;;;;17.15;83.17;101257.38;5015054;28;1710;-78
2023/09/17 01:22:55;;;;;;;;;;;;;;;17.15;82.94;101246.91;5028294;28;1105;-77
2023/09/17 01:25:42;;;;;;;;;;;;;;;17.11;83.00;101251.63;5023371;28;1055;-78
2023/09/17 01:28:11;;;;;;;;;;;;;;;17.09;82.35;101252.75;5008513;28;1883;-79
2023/09/17 01:30:38;;;;;;;;;;;;;;;17.06;82.14;101248.66;5025833;28;1118;-79
2023/09/17 01:33:04;;;;;;;;;;;;;;;17.04;81.72;101249.81;5036571;28;1065;-76
2023/09/17 01:35:30;;;;;;;;;;;;;;;16.99;81.00;101243.22;5022737;28;1496;-74
2023/09/17 01:37:59;;;;;;;;;;;;;;;16.95;81.57;101241.88;5034235;28;1227;-76
2023/09/17 01:40:24;;;;;;;;;;;;;;;16.93;81.15;101243.84;5034945;28;1197;-74
2023/09/17 01:42:50;;;;;;;;;;;;;;;16.92;81.59;101247.44;5031808;28;1037;-75
2023/09/17 01:45:18;;;;;;;;;;;;;;;16.88;81.78;101250.53;5032175;28;1194;-74
2023/09/17 01:47:45;;;;;;;;;;;;;;;16.87;81.57;101262.00;5027508;28;1901;-74
2023/09/17 01:50:16;;;;;;;;;;;;;;;16.83;81.56;101274.56;5021787;28;1234;-74
2023/09/17 01:52:45;;;;;;;;;;;;;;;16.83;81.79;101284.22;5032886;28;1320;-74
2023/09/17 01:55:10;;;;;;;;;;;;;;;16.82;81.81;101288.66;5030342;28;1385;-74
2023/09/17 01:57:36;;;;;;;;;;;;;;;16.83;81.87;101295.53;5028747;28;1051;-78
2023/09/17 02:00:14;;;;;;;;;;;;;;;16.86;82.14;101297.84;5038064;28;997;-78
2023/09/17 02:02:40;;;;;;;;;;;;;;;16.85;81.46;101295.38;5028432;28;1216;-78
2023/09/17 02:05:06;;;;;;;;;;;;;;;16.81;81.73;101307.97;5030026;28;1325;-78
2023/09/17 02:07:31;;;;;;;;;;;;;;;16.81;82.56;101300.13;5032883;28;1963;-77
2023/09/17 02:09:56;;;;;;;;;;;;;;;16.68;82.94;101297.84;5031628;28;1080;-77
2023/09/17 02:12:21;;;;;;;;;;;;;;;16.64;82.89;101301.78;5027497;28;1318;-78
2023/09/17 02:14:47;;;;;;;;;;;;;;;16.56;83.52;101299.06;5035412;28;1177;-77
2023/09/17 02:17:14;;;;;;;;;;;;;;;16.34;83.44;101300.38;5026069;28;1321;-77
2023/09/17 02:19:42;;;;;;;;;;;;;;;16.17;83.48;101307.28;5025582;28;1413;-77
2023/09/17 02:22:07;;;;;;;;;;;;;;;16.06;84.60;101297.03;5024888;28;902;-77
2023/09/17 02:24:32;;;;;;;;;;;;;;;15.96;85.64;101301.50;5025120;28;1200;-77
2023/09/17 02:26:57;;;;;;;;;;;;;;;15.83;85.54;101288.81;5025762;28;1894;-77
2023/09/17 02:29:22;;;;;;;;;;;;;;;15.76;85.79;101285.09;5021285;28;1303;-77
2023/09/17 02:31:48;;;;;;;;;;;;;;;15.71;85.84;101282.13;5019662;28;1175;-77
2023/09/17 02:34:13;;;;;;;;;;;;;;;15.67;86.39;101280.78;5025479;28;1278;-77
2023/09/17 02:36:38;;;;;;;;;;;;;;;15.69;86.84;101268.38;5021138;28;1465;-77
2023/09/17 02:39:04;;;;;;;;;;;;;;;15.71;86.99;101271.66;5019918;28;1102;-78
2023/09/17 02:41:29;;;;;;;;;;;;;;;15.69;87.41;101263.13;5017427;28;1460;-77
2023/09/17 02:43:54;;;;;;;;;;;;;;;15.64;87.85;101257.53;5035776;28;1300;-77
2023/09/17 02:46:19;;;;;;;;;;;;;;;15.62;88.33;101259.44;5028119;28;1507;-77
2023/09/17 02:48:47;;;;;;;;;;;;;;;15.60;88.45;101237.88;5033973;28;1913;-76
2023/09/17 02:51:13;;;;;;;;;;;;;;;15.55;88.22;101246.16;5030501;28;1401;-76
2023/09/17 02:53:38;;;;;;;;;;;;;;;15.54;88.99;101239.28;5035378;28;1272;-77
2023/09/17 02:56:04;;;;;;;;;;;;;;;15.54;88.96;101235.81;5042335;28;1530;-76
2023/09/17 02:58:29;;;;;;;;;;;;;;;15.52;89.22;101229.91;5042918;28;1291;-77
2023/09/17 03:00:54;;;;;;;;;;;;;;;15.51;89.06;101238.75;5035407;28;1287;-76
2023/09/17 03:03:20;;;;;;;;;;;;;;;15.55;89.72;101240.09;5036020;28;1738;-77
2023/09/17 03:05:46;;;;;;;;;;;;;;;15.56;89.97;101236.50;5026518;28;1209;-77
2023/09/17 03:08:11;;;;;;;;;;;;;;;15.50;89.41;101226.63;5032961;28;1926;-74
2023/09/17 03:10:41;;;;;;;;;;;;;;;15.47;89.98;101226.91;5032600;28;1325;-74
2023/09/17 03:13:07;;;;;;;;;;;;;;;15.43;90.27;101229.03;5032262;28;1283;-75
2023/09/17 03:15:32;;;;;;;;;;;;;;;15.35;90.69;101224.50;5029933;28;1320;-74
2023/09/17 03:17:57;;;;;;;;;;;;;;;15.31;90.45;101214.50;5033357;28;1300;-74
2023/09/17 03:20:22;;;;;;;;;;;;;;;15.29;90.87;101213.81;5015770;28;1329;-74
2023/09/17 03:22:48;;;;;;;;;;;;;;;15.27;91.16;101200.91;5007911;28;1325;-74
2023/09/17 03:25:13;;;;;;;;;;;;;;;15.26;92.09;101203.69;5029891;28;1075;-77
2023/09/17 03:27:43;;;;;;;;;;;;;;;15.21;91.69;101198.88;5035605;28;1905;-77
2023/09/17 03:30:08;;;;;;;;;;;;;;;15.19;92.07;101192.13;5038677;28;1066;-74
2023/09/17 03:32:33;;;;;;;;;;;;;;;15.17;92.67;101179.22;5028148;28;1175;-74
2023/09/17 03:34:59;;;;;;;;;;;;;;;15.17;92.48;101179.22;5028725;28;1071;-74
2023/09/17 03:37:25;;;;;;;;;;;;;;;15.18;92.76;101186.09;5025321;28;1209;-74
2023/09/17 03:40:07;;;;;;;;;;;;;;;15.17;92.66;101176.63;5019415;28;1085;-74
2023/09/17 03:42:33;;;;;;;;;;;;;;;15.15;93.45;101181.19;5024006;28;934;-74
2023/09/17 03:44:58;;;;;;;;;;;;;;;15.15;92.77;101170.72;5019526;28;1049;-74
2023/09/17 03:47:23;;;;;;;;;;;;;;;15.16;93.34;101177.59;5016297;28;1926;-74
2023/09/17 03:49:49;;;;;;;;;;;;;;;15.16;93.44;101176.78;5030092;28;1146;-74
2023/09/17 03:52:14;;;;;;;;;;;;;;;15.12;94.14;101173.63;5019502;28;1718;-74
2023/09/17 03:54:39;;;;;;;;;;;;;;;15.09;93.65;101172.13;5011855;28;1370;-74
2023/09/17 03:57:04;;;;;;;;;;;;;;;15.06;93.75;101171.59;5037794;28;1282;-74
2023/09/17 03:59:30;;;;;;;;;;;;;;;15.08;93.65;101169.66;5022913;28;1396;-74
2023/09/17 04:01:55;;;;;;;;;;;;;;;15.11;94.43;101166.75;5033071;28;1150;-75
2023/09/17 04:04:21;;;;;;;;;;;;;;;15.11;94.38;101169.38;5032295;28;1138;-74
2023/09/17 04:06:46;;;;;;;;;;;;;;;15.12;94.34;101166.59;5035996;28;1971;-74
2023/09/17 04:09:13;;;;;;;;;;;;;;;15.10;94.83;101157.28;5034420;28;1583;-74
2023/09/17 04:11:38;;;;;;;;;;;;;;;15.05;95.48;101164.72;5039350;28;1240;-74
2023/09/17 04:14:06;;;;;;;;;;;;;;;15.02;95.83;101165.81;5035291;28;1041;-75
2023/09/17 04:16:31;;;;;;;;;;;;;;;15.05;95.44;101175.19;5037202;28;1326;-74
2023/09/17 04:18:56;;;;;;;;;;;;;;;15.07;95.19;101168.00;5029687;28;1460;-75
2023/09/17 04:21:21;;;;;;;;;;;;;;;15.08;95.36;101169.66;5029214;28;1319;-74
2023/09/17 04:23:47;;;;;;;;;;;;;;;15.08;95.19;101169.66;5029915;28;1252;-75
2023/09/17 04:26:13;;;;;;;;;;;;;;;15.08;96.10;101167.88;5032452;28;1213;-74
2023/09/17 04:28:38;;;;;;;;;;;;;;;15.09;95.58;101161.69;5024874;28;1897;-75
2023/09/17 04:31:04;;;;;;;;;;;;;;;15.11;96.43;101164.13;5028545;28;1198;-75
2023/09/17 04:33:29;;;;;;;;;;;;;;;15.11;96.60;101171.97;5027557;28;1426;-75
2023/09/17 04:35:55;;;;;;;;;;;;;;;15.14;96.12;101163.88;5032083;28;1328;-74
2023/09/17 04:38:20;;;;;;;;;;;;;;;15.15;97.04;101181.19;5011734;28;1238;-74
2023/09/17 04:40:45;;;;;;;;;;;;;;;15.18;97.71;101165.19;5007948;28;1156;-75
2023/09/17 04:43:10;;;;;;;;;;;;;;;15.16;97.31;101172.38;5024101;28;958;-74
2023/09/17 04:45:39;;;;;;;;;;;;;;;15.12;97.86;101174.44;5022997;28;1336;-74
2023/09/17 04:48:04;;;;;;;;;;;;;;;15.12;97.75;101165.78;5025728;28;1894;-75
2023/09/17 04:50:30;;;;;;;;;;;;;;;15.12;97.48;101160.56;5023301;28;1173;-74
2023/09/17 04:52:56;;;;;;;;;;;;;;;15.13;96.79;101164.81;5012504;28;1540;-74
2023/09/17 04:55:21;;;;;;;;;;;;;;;15.13;97.55;101167.41;5025315;28;1257;-75
2023/09/17 04:57:46;;;;;;;;;;;;;;;15.16;97.31;101167.13;5026615;28;1714;-74
2023/09/17 05:00:12;;;;;;;;;;;;;;;15.16;97.63;101161.91;5034148;28;1256;-74
2023/09/17 05:02:40;;;;;;;;;;;;;;;15.15;98.95;101155.06;5031263;28;1258;-74
2023/09/17 05:05:09;;;;;;;;;;;;;;;15.19;98.67;101160.78;5041661;28;1288;-75
2023/09/17 05:07:36;;;;;;;;;;;;;;;15.20;99.96;101165.88;5037566;28;1898;-73
2023/09/17 05:10:01;;;;;;;;;;;;;;;15.20;100.00;101158.06;5035574;28;1257;-74
2023/09/17 05:12:27;;;;;;;;;;;;;;;15.19;100.00;101161.59;5002065;28;1310;-74
2023/09/17 05:14:52;;;;;;;;;;;;;;;15.13;100.00;101167.41;5040996;28;1102;-75
2023/09/17 05:17:17;;;;;;;;;;;;;;;15.09;100.00;101171.31;5006250;28;1387;-74
2023/09/17 05:19:43;;;;;;;;;;;;;;;15.03;100.00;101171.91;5031357;28;1387;-75
2023/09/17 05:22:08;;;;;;;;;;;;;;;15.00;100.00;101162.53;5028807;28;1087;-74
2023/09/17 05:24:33;;;;;;;;;;;;;;;15.01;100.00;101165.97;5028015;28;1544;-74
2023/09/17 05:26:58;;;;;;;;;;;;;;;15.01;100.00;101163.38;5013388;28;1963;-74
2023/09/17 05:29:23;;;;;;;;;;;;;;;15.01;100.00;101169.41;5015155;28;1322;-75
2023/09/17 05:31:48;;;;;;;;;;;;;;;15.07;100.00;101168.00;5030576;28;1226;-76
2023/09/17 05:34:14;;;;;;;;;;;;;;;15.07;100.00;101173.22;5031101;28;1220;-75
2023/09/17 05:36:39;;;;;;;;;;;;;;;15.08;100.00;101177.47;5030612;28;1240;-75
2023/09/17 05:39:06;;;;;;;;;;;;;;;15.09;100.00;101172.13;5031567;28;1325;-75
2023/09/17 05:41:31;;;;;;;;;;;;;;;15.10;100.00;101172.94;5030350;28;1302;-76
2023/09/17 05:43:56;;;;;;;;;;;;;;;15.10;100.00;101167.72;5008938;28;1542;-75
2023/09/17 05:46:22;;;;;;;;;;;;;;;15.10;100.00;101167.72;5031467;28;1306;-75
2023/09/17 05:48:47;;;;;;;;;;;;;;;15.10;100.00;101167.72;5024283;28;1890;-76
2023/09/17 05:51:12;;;;;;;;;;;;;;;15.13;100.00;101168.25;5034573;28;1094;-75
2023/09/17 05:53:37;;;;;;;;;;;;;;;15.16;100.00;101172.38;5010512;28;1246;-75
2023/09/17 05:56:04;;;;;;;;;;;;;;;15.17;100.00;101176.63;5007425;28;1340;-75
2023/09/17 05:58:29;;;;;;;;;;;;;;;15.17;100.00;101171.41;5033071;28;1481;-75
2023/09/17 06:00:54;;;;;;;;;;;;;;;15.23;100.00;101172.59;5031411;28;1305;-75
2023/09/17 06:03:20;;;;;;;;;;;;;;;15.21;100.00;101169.31;5031726;28;1383;-75
2023/09/17 06:05:45;;;;;;;;;;;;;;;15.23;100.00;101183.88;5028629;28;1034;-74
2023/09/17 06:08:10;;;;;;;;;;;;;;;15.27;100.00;101180.00;5029309;28;1965;-76
2023/09/17 06:10:35;;;;;;;;;;;;;;;15.27;100.00;101180.00;5006823;28;1642;-76
2023/09/17 06:13:01;;;;;;;;;;;;;;;15.29;100.00;101183.28;5025772;28;1436;-75
2023/09/17 06:15:26;;;;;;;;;;;;;;;15.31;100.00;101191.81;5024654;28;1655;-75
2023/09/17 06:17:51;;;;;;;;;;;;;;;15.36;100.00;101188.75;5031737;28;1496;-74
2023/09/17 06:20:17;;;;;;;;;;;;;;;15.36;100.00;101180.91;5041071;28;1283;-71
2023/09/17 06:22:43;;;;;;;;;;;;;;;15.37;100.00;101183.38;5036801;28;1213;-74
2023/09/17 06:25:08;;;;;;;;;;;;;;;15.38;100.00;101185.03;5016854;28;1447;-75
2023/09/17 06:27:34;;;;;;;;;;;;;;;15.39;100.00;101178.81;5035173;28;1976;-75
2023/09/17 06:30:00;;;;;;;;;;;;;;;15.39;100.00;101180.63;5022555;28;1377;-75
2023/09/17 06:32:25;;;;;;;;;;;;;;;15.38;100.00;101174.56;5037658;28;1057;-75
2023/09/17 06:34:50;;;;;;;;;;;;;;;15.39;100.00;101184.06;5019646;28;1445;-75
2023/09/17 06:37:15;;;;;;;;;;;;;;;15.41;100.00;101182.09;5027311;28;1518;-76
2023/09/17 06:39:41;;;;;;;;;;;;;;;15.44;100.00;101185.41;5033238;28;1194;-75
2023/09/17 06:42:07;;;;;;;;;;;;;;;15.46;100.00;101183.47;5038117;28;984;-75
2023/09/17 06:44:32;;;;;;;;;;;;;;;15.45;100.00;101192.28;5031599;28;1212;-75
2023/09/17 06:46:57;;;;;;;;;;;;;;;15.45;100.00;101181.81;5031886;28;1967;-75
2023/09/17 06:49:22;;;;;;;;;;;;;;;15.47;100.00;101185.09;5031227;28;1111;-75
2023/09/17 06:51:48;;;;;;;;;;;;;;;15.46;100.00;101183.47;5026794;28;1085;-75
2023/09/17 06:54:14;;;;;;;;;;;;;;;15.49;100.00;101183.19;5016972;28;1236;-75
2023/09/17 06:56:39;;;;;;;;;;;;;;;15.49;100.00;101188.41;5031672;28;1257;-75
2023/09/17 06:59:05;;;;;;;;;;;;;;;15.50;100.00;101187.44;5034350;28;1181;-76
2023/09/17 07:01:30;;;;;;;;;;;;;;;15.53;100.00;101194.97;5032556;28;1502;-75
2023/09/17 07:03:56;;;;;;;;;;;;;;;15.52;100.00;101185.47;5032372;28;1044;-75
2023/09/17 07:06:21;;;;;;;;;;;;;;;15.54;100.00;101196.59;5034668;28;1380;-75
2023/09/17 07:08:46;;;;;;;;;;;;;;;15.55;100.00;101191.25;5027803;28;1980;-75
2023/09/17 07:11:12;;;;;;;;;;;;;;;15.59;100.00;101183.91;5028870;28;1539;-75
2023/09/17 07:13:38;;;;;;;;;;;;;;;15.60;100.00;101175.13;5030321;28;960;-76
2023/09/17 07:16:04;;;;;;;;;;;;;;;15.60;100.00;101180.34;5013373;28;1296;-75
2023/09/17 07:18:31;;;;;;;;;;;;;;;15.62;100.00;101183.63;5012709;28;1613;-75
2023/09/17 07:20:56;;;;;;;;;;;;;;;15.62;100.00;101183.63;5029353;28;1092;-76
2023/09/17 07:23:21;;;;;;;;;;;;;;;15.62;100.00;101183.63;5028401;28;1023;-76
2023/09/17 07:25:47;;;;;;;;;;;;;;;15.61;100.00;101182.81;5028717;28;1077;-76
2023/09/17 07:28:12;;;;;;;;;;;;;;;15.63;100.00;101180.06;5028546;28;1961;-75
2023/09/17 07:30:37;;;;;;;;;;;;;;;15.62;100.00;101183.63;5017725;28;1257;-75
2023/09/17 07:33:03;;;;;;;;;;;;;;;15.61;100.00;101185.41;5036726;28;1028;-75
2023/09/17 07:35:29;;;;;;;;;;;;;;;15.61;100.00;101174.13;5013749;28;1302;-75
2023/09/17 07:37:54;;;;;;;;;;;;;;;15.62;100.00;101178.38;5029038;28;1098;-75
2023/09/17 07:40:19;;;;;;;;;;;;;;;15.60;100.00;101175.94;5033478;28;1269;-75
2023/09/17 07:42:45;;;;;;;;;;;;;;;15.59;100.00;101181.28;5017329;28;1327;-75
2023/09/17 07:45:12;;;;;;;;;;;;;;;15.60;100.00;101175.13;5017303;28;1274;-75
2023/09/17 07:47:38;;;;;;;;;;;;;;;15.61;100.00;101174.13;5029259;28;1898;-75
2023/09/17 07:50:03;;;;;;;;;;;;;;;15.59;100.00;101173.44;5033598;28;1495;-76
2023/09/17 07:52:29;;;;;;;;;;;;;;;15.62;100.00;101173.16;5034077;28;1265;-75
2023/09/17 07:54:54;;;;;;;;;;;;;;;15.62;100.00;101170.53;5032569;28;1202;-75
2023/09/17 07:57:19;;;;;;;;;;;;;;;15.64;100.00;101171.25;5033209;28;1225;-75
2023/09/17 07:59:46;;;;;;;;;;;;;;;15.64;100.00;101176.47;5034139;28;1236;-76
2023/09/17 08:02:12;;;;;;;;;;;;;;;15.65;100.00;101189.41;5031586;28;1546;-75
2023/09/17 08:04:37;;;;;;;;;;;;;;;15.64;100.00;101184.31;5032947;28;1064;-76
2023/09/17 08:07:02;;;;;;;;;;;;;;;15.65;100.00;101183.34;5031320;28;1967;-75
2023/09/17 08:09:27;;;;;;;;;;;;;;;15.67;100.00;101189.25;5025432;28;1547;-75
2023/09/17 08:11:53;;;;;;;;;;;;;;;15.69;100.00;101178.63;5012500;28;1379;-75
2023/09/17 08:14:18;;;;;;;;;;;;;;;15.71;100.00;101182.72;5025354;28;1551;-75
2023/09/17 08:16:43;;;;;;;;;;;;;;;15.72;100.00;101181.78;5005316;28;1244;-75
2023/09/17 08:19:08;;;;;;;;;;;;;;;15.72;100.00;101173.13;5032761;28;1440;-75
2023/09/17 08:21:34;;;;;;;;;;;;;;;15.73;100.00;101174.75;5010699;28;1361;-75
2023/09/17 08:23:59;;;;;;;;;;;;;;;15.74;100.00;101187.69;5012771;28;1554;-75
2023/09/17 08:26:28;;;;;;;;;;;;;;;15.74;100.00;101181.63;5030488;28;1333;-77
2023/09/17 08:28:55;;;;;;;;;;;;;;;15.74;100.00;101179.84;5024965;28;1918;-75
2023/09/17 08:31:22;;;;;;;;;;;;;;;15.75;100.00;101178.84;5033519;28;1254;-75
2023/09/17 08:33:47;;;;;;;;;;;;;;;15.78;100.00;101178.56;5027796;28;1197;-75
2023/09/17 08:36:13;;;;;;;;;;;;;;;15.81;100.00;101183.50;5017431;28;1169;-76
2023/09/17 08:38:38;;;;;;;;;;;;;;;15.82;100.00;101190.34;5029981;28;1076;-75
2023/09/17 08:41:05;;;;;;;;;;;;;;;15.84;100.00;101175.34;5011493;28;1261;-75
2023/09/17 08:43:31;;;;;;;;;;;;;;;15.85;100.00;101184.84;5032984;28;1009;-75
2023/09/17 08:45:58;;;;;;;;;;;;;;;15.84;100.00;101175.34;5009321;28;1307;-75
2023/09/17 08:48:23;;;;;;;;;;;;;;;15.86;100.00;101181.25;5034579;28;1922;-75
2023/09/17 08:50:49;;;;;;;;;;;;;;;15.87;100.00;101187.28;5032433;28;1304;-75
2023/09/17 08:53:18;;;;;;;;;;;;;;;15.88;100.00;101191.53;5015707;28;1267;-75
2023/09/17 08:55:44;;;;;;;;;;;;;;;15.87;100.00;101190.72;5025728;28;1226;-75
2023/09/17 08:58:11;;;;;;;;;;;;;;;15.87;100.00;101201.19;5028076;28;1204;-76
2023/09/17 09:00:38;;;;;;;;;;;;;;;15.87;100.00;101198.56;5036671;28;1272;-76
2023/09/17 09:03:05;;;;;;;;;;;;;;;15.88;100.00;101207.25;5022137;28;1224;-76
2023/09/17 09:05:30;;;;;;;;;;;;;;;15.92;100.00;101201.56;5029625;28;1264;-76
2023/09/17 09:07:56;;;;;;;;;;;;;;;15.93;100.00;101203.22;5007953;28;1965;-76
2023/09/17 09:10:22;;;;;;;;;;;;;;;15.96;100.00;101196.88;5024227;28;1519;-75
2023/09/17 09:12:47;;;;;;;;;;;;;;;15.98;100.00;101194.09;5028752;28;1080;-76
2023/09/17 09:15:12;;;;;;;;;;;;;;;16.02;100.00;101198.06;5027197;28;1212;-76
2023/09/17 09:17:41;;;;;;;;;;;;;;;16.06;100.00;101202.03;5031707;28;1232;-77
2023/09/17 09:20:09;;;;;;;;;;;;;;;16.12;100.00;101201.41;5028360;28;1391;-77
2023/09/17 09:22:35;;;;;;;;;;;;;;;16.14;100.00;101199.47;5008288;28;2119;-76
2023/09/17 09:25:01;;;;;;;;;;;;;;;16.15;100.00;101201.09;5005331;28;1434;-76
2023/09/17 09:27:26;;;;;;;;;;;;;;;16.17;100.00;101193.91;5025742;28;1944;-76
2023/09/17 09:29:52;;;;;;;;;;;;;;;16.17;100.00;101199.97;5024759;28;1097;-76
2023/09/17 09:32:18;;;;;;;;;;;;;;;16.19;100.00;101197.22;5027425;28;1206;-76
2023/09/17 09:34:43;;;;;;;;;;;;;;;16.24;100.00;101202.81;5023983;28;1094;-76
2023/09/17 09:37:09;;;;;;;;;;;;;;;16.25;100.00;101207.06;5006102;28;1289;-76
2023/09/17 09:39:37;;;;;;;;;;;;;;;16.28;100.00;101206.75;5028505;28;1209;-76
2023/09/17 09:42:04;;;;;;;;;;;;;;;16.30;100.00;101204.81;5021276;28;1236;-75
2023/09/17 09:44:30;;;;;;;;;;;;;;;16.30;100.00;101207.44;5028800;28;1560;-75
2023/09/17 09:46:56;;;;;;;;;;;;;;;16.32;100.00;101202.84;5006835;28;1933;-78
2023/09/17 09:49:22;;;;;;;;;;;;;;;16.36;100.00;101196.34;5035685;28;1681;-75
2023/09/17 09:51:47;;;;;;;;;;;;;;;16.42;100.00;101193.13;5023352;28;1412;-76
2023/09/17 09:54:13;;;;;;;;;;;;;;;16.40;100.00;101189.84;5031294;28;1519;-75
2023/09/17 09:56:39;;;;;;;;;;;;;;;16.42;100.00;101193.13;5013962;28;1638;-76
2023/09/17 09:59:05;;;;;;;;;;;;;;;16.43;100.00;101179.03;5025052;28;1265;-77
2023/09/17 10:01:34;;;;;;;;;;;;;;;16.43;100.00;101179.03;5030620;28;1248;-76
2023/09/17 10:04:00;;;;;;;;;;;;;;;16.46;100.00;101178.75;5005969;28;1409;-75
2023/09/17 10:06:25;;;;;;;;;;;;;;;16.51;100.00;101177.44;5031542;28;1615;-76
2023/09/17 10:08:52;;;;;;;;;;;;;;;16.54;100.00;101174.53;5025941;28;1953;-76
2023/09/17 10:11:19;;;;;;;;;;;;;;;16.60;100.00;101179.13;5026692;28;1236;-76
2023/09/17 10:13:44;;;;;;;;;;;;;;;16.68;100.00;101176.53;5023888;28;1277;-77
2023/09/17 10:16:10;;;;;;;;;;;;;;;16.76;100.00;101170.56;5030342;28;1218;-76
2023/09/17 10:18:37;;;;;;;;;;;;;;;16.80;100.00;101175.31;5024158;28;1599;-75
2023/09/17 10:21:04;;;;;;;;;;;;;;;16.84;100.00;101175.84;5004817;28;1323;-76
2023/09/17 10:23:30;;;;;;;;;;;;;;;16.87;100.00;101165.88;5028061;28;1123;-76
2023/09/17 10:25:58;;;;;;;;;;;;;;;16.91;100.00;101164.56;5025955;28;1132;-76
2023/09/17 10:28:23;;;;;;;;;;;;;;;16.95;100.00;101163.28;5028278;28;1890;-76
2023/09/17 10:30:49;;;;;;;;;;;;;;;16.99;100.00;101159.38;5018674;28;1175;-75
2023/09/17 10:33:14;;;;;;;;;;;;;;;16.97;100.00;101156.09;5010438;28;1789;-76
2023/09/17 10:35:41;;;;;;;;;;;;;;;16.98;100.00;101157.72;5025345;28;1237;-76
2023/09/17 10:38:07;;;;;;;;;;;;;;;17.02;100.00;101162.63;5025496;28;1241;-76
2023/09/17 10:40:33;;;;;;;;;;;;;;;17.05;100.00;101160.53;5007773;28;1376;-76
2023/09/17 10:43:01;;;;;;;;;;;;;;;17.09;100.00;101163.63;5026087;28;1288;-76
2023/09/17 10:45:28;;;;;;;;;;;;;;;17.13;100.00;101151.88;5027923;28;1342;-77
2023/09/17 10:47:57;;;;;;;;;;;;;;;17.18;100.00;101157.44;5007058;28;1942;-76
2023/09/17 10:50:22;;;;;;;;;;;;;;;17.20;100.00;101147.63;5004661;28;1558;-76
2023/09/17 10:52:48;;;;;;;;;;;;;;;17.27;100.00;101148.63;5022326;28;1241;-74
2023/09/17 10:55:13;;;;;;;;;;;;;;;17.31;100.00;101149.94;5016577;28;1188;-75
2023/09/17 10:57:43;;;;;;;;;;;;;;;17.37;100.00;101145.84;5024002;28;1233;-76
2023/09/17 11:00:20;;;;;;;;;;;;;;;17.40;100.00;101146.34;5038893;28;1327;-77
2023/09/17 11:02:48;;;;;;;;;;;;;;;17.44;100.00;101152.94;5014403;28;1257;-76
2023/09/17 11:05:15;;;;;;;;;;;;;;;17.47;100.00;101149.16;5013368;28;1364;-76
2023/09/17 11:07:41;;;;;;;;;;;;;;;17.46;100.00;101164.06;5032209;28;1886;-76
2023/09/17 11:10:07;;;;;;;;;;;;;;;17.48;100.00;101167.34;5033683;28;1229;-77
2023/09/17 11:12:32;;;;;;;;;;;;;;;17.52;100.00;101166.03;5029981;28;1197;-76
2023/09/17 11:14:57;;;;;;;;;;;;;;;17.59;100.00;101157.50;5033048;28;1067;-76
2023/09/17 11:17:30;;;;;;;;;;;;;;;17.62;100.00;101159.81;5028428;28;1546;-75
2023/09/17 11:19:55;;;;;;;;;;;;;;;17.64;100.00;101163.09;5033419;28;1141;-76
2023/09/17 11:22:20;;;;;;;;;;;;;;;17.65;100.00;101159.47;5025469;28;1110;-76
2023/09/17 11:24:47;;;;;;;;;;;;;;;17.70;100.00;101157.19;5019179;28;1228;-77
2023/09/17 11:27:17;;;;;;;;;;;;;;;17.73;100.00;101152.47;5033306;28;1926;-75
2023/09/17 11:29:44;;;;;;;;;;;;;;;17.76;100.00;101157.38;5035524;28;1141;-75
2023/09/17 11:32:09;;;;;;;;;;;;;;;17.82;100.00;101155.91;5011484;28;2104;-76
2023/09/17 11:34:36;;;;;;;;;;;;;;;17.87;100.00;101153.63;5027136;28;1184;-75
2023/09/17 11:37:05;;;;;;;;;;;;;;;17.91;100.00;101160.19;5030506;28;1351;-75
2023/09/17 11:39:31;;;;;;;;;;;;;;;17.97;100.00;101159.53;5032260;28;1029;-76
2023/09/17 11:42:07;;;;;;;;;;;;;;;18.03;100.00;101158.03;5024542;28;1169;-76
2023/09/17 11:44:34;;;;;;;;;;;;;;;18.07;100.00;101163.78;5028928;28;1006;-76
2023/09/17 11:46:59;;;;;;;;;;;;;;;18.11;100.00;101159.84;5024883;28;1890;-75
2023/09/17 11:49:25;;;;;;;;;;;;;;;18.17;100.00;101169.66;5024581;28;1085;-76
2023/09/17 11:51:51;;;;;;;;;;;;;;;18.18;100.00;101160.78;5032701;28;1221;-75
2023/09/17 11:54:19;;;;;;;;;;;;;;;18.22;100.00;101175.25;5033779;28;1261;-76
2023/09/17 11:56:49;;;;;;;;;;;;;;;18.27;100.00;101170.31;5024686;28;1351;-76
2023/09/17 11:59:16;;;;;;;;;;;;;;;18.31;100.00;101166.38;5031542;28;1595;-76
2023/09/17 12:01:43;;;;;;;;;;;;;;;18.34;100.00;101171.28;5019763;28;1142;-76
2023/09/17 12:04:09;;;;;;;;;;;;;;;18.37;100.00;101175.38;5029962;28;1245;-75
2023/09/17 12:06:37;;;;;;;;;;;;;;;18.42;100.00;101179.16;5037735;28;1205;-75
2023/09/17 12:09:15;;;;;;;;;;;;;;;18.51;100.00;101177.31;5031558;28;1960;-76
2023/09/17 12:11:41;;;;;;;;;;;;;;;18.61;100.00;101182.38;5015615;28;1278;-76
2023/09/17 12:14:06;;;;;;;;;;;;;;;18.69;100.00;101179.75;5029319;28;1137;-76
2023/09/17 12:16:32;;;;;;;;;;;;;;;18.74;100.00;101183.50;5032752;28;1324;-75
2023/09/17 12:18:57;;;;;;;;;;;;;;;18.80;100.00;101176.75;5013455;28;1107;-76
2023/09/17 12:21:27;;;;;;;;;;;;;;;18.89;100.00;101175.75;5026548;28;1197;-76
2023/09/17 12:24:05;;;;;;;;;;;;;;;18.97;100.00;101178.31;5026007;28;2076;-76
2023/09/17 12:26:54;;;;;;;;;;;;;;;19.03;100.00;101171.56;5030428;28;1284;-76
2023/09/17 12:29:20;;;;;;;;;;;;;;;19.08;100.00;101164.78;5030715;28;1321;-75
2023/09/17 12:31:45;;;;;;;;;;;;;;;19.15;100.00;101169.38;5030621;28;1299;-75
2023/09/17 12:34:11;;;;;;;;;;;;;;;19.23;100.00;101161.44;5032869;28;1268;-76